Time;durP1;ratioP1;P1;durP2;ratioP2;P2;SDS_P1;SDS_P2;PMS_P1;PMS_P2;Temp;Humidity;BMP_temperature;BMP_pressure;BME280_temperature;BME280_humidity;BME280_pressure;Samples;Min_cycle;Max_cycle;Signal;HPM_P1;HPM_P2
2023/01/29 00:01:40;;;;;;;43.83;20.42;;;-2.20;99.90;;;;;;5074829;28;20074;-85
2023/01/29 00:04:06;;;;;;;31.35;16.48;;;-2.30;99.90;;;;;;5073440;28;20045;-86
2023/01/29 00:06:31;;;;;;;30.35;14.20;;;-2.30;99.90;;;;;;5074751;28;20099;-85
2023/01/29 00:08:57;;;;;;;28.85;14.23;;;-2.30;99.90;;;;;;5073853;28;20132;-85
2023/01/29 00:11:24;;;;;;;30.35;13.88;;;-2.20;99.90;;;;;;5075093;28;20020;-86
2023/01/29 00:13:53;;;;;;;24.08;12.40;;;-2.30;99.90;;;;;;5073430;28;20158;-86
2023/01/29 00:16:21;;;;;;;92.72;36.85;;;-2.30;99.90;;;;;;5073981;28;20067;-86
2023/01/29 00:18:53;;;;;;;53.55;24.45;;;-2.30;99.90;;;;;;5073547;28;20110;-85
2023/01/29 00:21:21;;;;;;;49.28;21.95;;;-2.30;99.90;;;;;;5074333;28;20032;-85
2023/01/29 00:23:47;;;;;;;23.80;14.10;;;-2.30;99.90;;;;;;5076000;28;20044;-85
2023/01/29 00:26:14;;;;;;;24.98;13.60;;;-2.40;99.90;;;;;;5073608;28;20017;-85
2023/01/29 00:28:43;;;;;;;29.25;14.32;;;-2.40;99.90;;;;;;5073446;28;20129;-87
2023/01/29 00:31:17;;;;;;;25.05;13.25;;;-2.40;99.90;;;;;;5073979;28;20025;-86
2023/01/29 00:33:46;;;;;;;25.38;14.02;;;-2.40;99.90;;;;;;5072433;28;20056;-86
2023/01/29 00:36:14;;;;;;;29.00;14.32;;;-2.50;99.90;;;;;;5076758;28;20024;-85
2023/01/29 00:38:40;;;;;;;47.30;23.23;;;-2.50;99.90;;;;;;5072982;28;20081;-85
2023/01/29 00:46:39;;;;;;;41.85;21.45;;;-2.50;99.90;;;;;;5074530;28;20074;-86
2023/01/29 00:49:05;;;;;;;39.55;18.00;;;-2.40;99.90;;;;;;5074181;28;20393;-84
2023/01/29 00:51:31;;;;;;;45.35;21.25;;;-2.40;99.90;;;;;;5073816;28;20025;-85
2023/01/29 00:54:01;;;;;;;26.90;13.73;;;-2.40;99.90;;;;;;5073959;28;20048;-85
2023/01/29 00:56:28;;;;;;;28.00;13.52;;;-2.50;99.90;;;;;;5074389;28;20067;-85
2023/01/29 00:58:54;;;;;;;34.75;17.05;;;-2.50;99.90;;;;;;5073823;28;20025;-84
2023/01/29 01:03:04;;;;;;;33.22;16.23;;;-2.50;99.90;;;;;;5073819;28;20020;-84
2023/01/29 01:04:07;;;;;;;17.00;10.38;;;-2.50;99.90;;;;;;5075007;28;20071;-85
2023/01/29 01:06:33;;;;;;;24.10;11.10;;;-2.60;99.90;;;;;;5074968;28;20021;-85
2023/01/29 01:11:42;;;;;;;22.45;11.73;;;-2.70;99.90;;;;;;5075377;28;20031;-84
2023/01/29 01:14:08;;;;;;;18.48;10.23;;;-2.60;99.90;;;;;;5074811;28;20024;-84
2023/01/29 01:16:33;;;;;;;24.17;12.15;;;-2.60;99.90;;;;;;5074025;28;20024;-85
2023/01/29 01:18:59;;;;;;;19.67;10.95;;;-2.60;99.90;;;;;;5076691;28;20040;-85
2023/01/29 01:21:25;;;;;;;30.52;15.48;;;-2.70;99.90;;;;;;5095302;28;20027;-85
2023/01/29 01:23:50;;;;;;;29.58;15.68;;;-2.60;99.90;;;;;;5077018;28;20028;-84
2023/01/29 01:26:17;;;;;;;31.33;14.75;;;-2.60;99.90;;;;;;5077017;28;20024;-86
2023/01/29 01:28:43;;;;;;;25.13;13.02;;;-2.60;99.90;;;;;;5076961;28;20051;-84
2023/01/29 01:31:13;;;;;;;51.80;22.15;;;-2.60;99.90;;;;;;5076564;28;20032;-85
2023/01/29 01:33:39;;;;;;;41.58;21.20;;;-2.60;99.90;;;;;;5095128;28;20413;-85
2023/01/29 01:36:08;;;;;;;39.40;19.63;;;-2.60;99.90;;;;;;5094657;28;20024;-84
2023/01/29 01:38:44;;;;;;;30.00;14.77;;;-2.60;99.90;;;;;;5076739;28;20363;-84
2023/01/29 01:41:11;;;;;;;31.45;15.88;;;-2.60;99.90;;;;;;5076911;28;20110;-84
2023/01/29 01:43:54;;;;;;;23.73;12.15;;;-2.70;99.90;;;;;;5094426;28;20023;-85
2023/01/29 01:46:20;;;;;;;;;;;-2.60;99.90;;;;;;5077053;28;20381;-84
2023/01/29 01:48:52;;;;;;;17.98;9.13;;;-2.70;99.90;;;;;;5094393;28;19904;-85
2023/01/29 01:51:19;;;;;;;29.08;14.30;;;-2.70;99.90;;;;;;5076425;28;20017;-84
2023/01/29 01:53:55;;;;;;;20.73;11.30;;;-2.70;99.90;;;;;;5076059;28;20031;-85
2023/01/29 01:56:37;;;;;;;17.65;10.43;;;-2.60;99.90;;;;;;5076136;28;20027;-85
2023/01/29 01:59:04;;;;;;;19.80;11.35;;;-2.60;99.90;;;;;;5094315;28;20031;-86
2023/01/29 02:01:30;;;;;;;19.08;11.70;;;-2.60;99.90;;;;;;5076428;28;20374;-85
2023/01/29 02:09:39;;;;;;;17.40;9.93;;;-2.60;99.90;;;;;;5094061;28;20061;-85
2023/01/29 02:12:09;;;;;;;;;;;-2.70;99.90;;;;;;5076273;28;20401;-85
2023/01/29 02:14:38;;;;;;;15.75;9.40;;;-2.70;99.90;;;;;;5094289;28;20004;-85
2023/01/29 02:17:15;;;;;;;22.00;10.88;;;-2.70;99.90;;;;;;5075803;28;20024;-85
2023/01/29 02:19:51;;;;;;;18.55;10.95;;;-2.70;99.90;;;;;;5075692;28;20090;-84
2023/01/29 02:22:32;;;;;;;28.27;14.40;;;-2.70;99.90;;;;;;5075368;28;20035;-84
2023/01/29 02:25:08;;;;;;;15.00;9.23;;;-2.70;99.90;;;;;;5092458;28;20032;-86
2023/01/29 02:27:47;;;;;;;13.63;8.07;;;-2.70;99.90;;;;;;5075695;28;20031;-84
2023/01/29 02:30:21;;;;;;;16.10;10.13;;;-2.80;99.90;;;;;;5093833;28;20057;-84
2023/01/29 02:33:08;;;;;;;15.30;8.77;;;-2.80;99.90;;;;;;5093571;28;20018;-85
2023/01/29 02:35:42;;;;;;;17.83;9.00;;;-2.80;99.90;;;;;;5093690;28;20019;-85
2023/01/29 02:38:29;;;;;;;15.02;8.68;;;-2.80;99.90;;;;;;5075678;28;20012;-85
2023/01/29 02:41:02;;;;;;;16.48;10.88;;;-2.80;99.90;;;;;;5075628;28;20427;-84
2023/01/29 02:43:37;;;;;;;15.40;8.77;;;-2.80;99.90;;;;;;5093543;28;20016;-85
2023/01/29 02:46:18;;;;;;;17.45;10.40;;;-2.80;99.90;;;;;;5093908;28;20020;-86
2023/01/29 02:49:04;;;;;;;23.92;13.48;;;-2.80;99.90;;;;;;5075562;28;20028;-86
2023/01/29 02:51:35;;;;;;;13.10;8.30;;;-2.80;99.90;;;;;;5075440;28;20077;-86
2023/01/29 02:54:03;;;;;;;13.73;8.07;;;-2.80;99.90;;;;;;5093459;28;20107;-85
2023/01/29 02:56:48;;;;;;;12.15;7.35;;;-2.70;99.90;;;;;;5075242;28;20488;-85
2023/01/29 02:59:20;;;;;;;11.13;8.05;;;-2.70;99.90;;;;;;5082981;28;20107;-86
2023/01/29 03:01:50;;;;;;;10.57;6.97;;;-2.70;99.90;;;;;;5075612;28;20020;-84
2023/01/29 03:04:33;;;;;;;16.70;10.82;;;-2.70;99.90;;;;;;5093370;28;20037;-84
2023/01/29 03:07:41;;;;;;;13.02;9.93;;;-2.80;99.90;;;;;;5075482;28;20028;-84
2023/01/29 03:10:02;;;;;;;11.18;7.50;;;-2.80;99.90;;;;;;5093134;28;20435;-85
2023/01/29 03:12:34;;;;;;;11.30;7.28;;;-2.80;99.90;;;;;;5075504;28;20031;-84
2023/01/29 03:15:10;;;;;;;;;;;-2.80;99.90;;;;;;5075596;28;20119;-84
2023/01/29 03:18:00;;;;;;;10.80;8.10;;;-2.80;99.90;;;;;;5093374;28;19911;-84
2023/01/29 03:20:31;;;;;;;19.58;9.32;;;-2.90;99.90;;;;;;5075002;28;20044;-85
2023/01/29 03:23:05;;;;;;;11.93;8.70;;;-2.90;99.90;;;;;;5075464;28;20466;-85
2023/01/29 03:33:57;;;;;;;14.40;10.40;;;-2.90;99.90;;;;;;5097437;28;20085;-84
2023/01/29 03:36:44;;;;;;;15.93;8.63;;;-2.90;99.90;;;;;;5079042;28;20025;-84
2023/01/29 03:39:11;;;;;;;16.30;10.02;;;-3.00;99.90;;;;;;5078716;28;20358;-84
2023/01/29 03:41:58;;;;;;;13.45;9.02;;;-3.00;99.90;;;;;;5096920;28;20024;-85
2023/01/29 03:44:45;;;;;;;10.98;7.85;;;-2.90;99.90;;;;;;5078610;28;20085;-83
2023/01/29 03:47:19;;;;;;;17.80;10.13;;;-3.00;99.90;;;;;;5078515;28;20027;-85
2023/01/29 03:49:58;;;;;;;11.07;7.45;;;-3.00;99.90;;;;;;5097117;28;20020;-84
2023/01/29 03:52:38;;;;;;;11.25;7.88;;;-3.10;99.90;;;;;;5078959;28;20440;-85
2023/01/29 03:55:29;;;;;;;13.77;8.60;;;-3.20;99.90;;;;;;5078467;28;20032;-85
2023/01/29 03:58:14;;;;;;;13.85;9.05;;;-3.20;99.90;;;;;;5096608;28;20028;-85
2023/01/29 04:00:45;;;;;;;13.10;8.35;;;-3.10;99.90;;;;;;5078457;28;20017;-85
2023/01/29 04:03:18;;;;;;;13.75;7.90;;;-3.10;99.90;;;;;;5078226;28;20016;-84
2023/01/29 04:06:08;;;;;;;9.93;7.10;;;-3.10;99.90;;;;;;5078183;28;20062;-85
2023/01/29 04:08:49;;;;;;;12.15;7.30;;;-3.10;99.90;;;;;;5068728;28;20426;-84
2023/01/29 04:11:18;;;;;;;12.30;7.22;;;-3.10;99.90;;;;;;5096425;28;20103;-85
2023/01/29 04:13:45;;;;;;;10.10;6.95;;;-3.10;99.90;;;;;;5096306;28;20462;-86
2023/01/29 04:16:17;;;;;;;12.70;8.13;;;-3.20;99.90;;;;;;5078153;28;20052;-84
2023/01/29 04:18:47;;;;;;;11.85;7.07;;;-3.20;99.90;;;;;;5074934;28;20126;-84
2023/01/29 04:21:14;;;;;;;12.15;7.82;;;-3.20;99.90;;;;;;5075975;28;20016;-85
2023/01/29 04:23:40;;;;;;;12.30;8.15;;;-3.20;99.90;;;;;;5074910;28;20040;-85
2023/01/29 04:26:27;;;;;;;18.02;8.68;;;-3.30;99.90;;;;;;5074588;28;20474;-85
2023/01/29 04:29:24;;;;;;;9.75;6.32;;;-3.20;99.90;;;;;;5075836;28;20036;-85
2023/01/29 04:31:56;;;;;;;15.30;8.77;;;-3.30;99.90;;;;;;5076105;28;20032;-86
2023/01/29 04:34:32;;;;;;;12.20;7.15;;;-3.30;99.90;;;;;;5075811;28;20376;-86
2023/01/29 04:37:39;;;;;;;12.18;8.10;;;-3.30;99.90;;;;;;5074433;28;20020;-84
2023/01/29 04:40:13;;;;;;;8.63;5.78;;;-3.30;99.90;;;;;;5074671;28;20428;-86
2023/01/29 04:43:13;;;;;;;8.65;6.50;;;-3.30;99.90;;;;;;5074405;28;20555;-84
2023/01/29 04:45:52;;;;;;;9.23;5.72;;;-3.40;99.90;;;;;;5069643;28;20048;-84
2023/01/29 04:48:28;;;;;;;8.70;6.50;;;-3.50;99.90;;;;;;5074072;28;20470;-85
2023/01/29 04:51:06;;;;;;;12.23;7.15;;;-3.50;99.90;;;;;;5075664;28;20020;-85
2023/01/29 04:54:03;;;;;;;9.05;6.38;;;-3.50;99.90;;;;;;5074363;28;20081;-85
2023/01/29 04:56:45;;;;;;;9.75;6.65;;;-3.60;99.90;;;;;;5075410;28;20359;-85
2023/01/29 04:59:18;;;;;;;9.10;6.20;;;-3.80;99.90;;;;;;5074373;28;20376;-84
2023/01/29 05:01:45;;;;;;;11.18;7.35;;;-3.90;99.90;;;;;;5073996;28;20059;-84
2023/01/29 05:04:13;;;;;;;7.82;6.20;;;-4.00;99.90;;;;;;5074139;28;20079;-84
2023/01/29 05:06:40;;;;;;;12.27;6.55;;;-4.10;99.90;;;;;;5075160;28;20029;-84
2023/01/29 05:09:08;;;;;;;9.15;6.25;;;-4.20;99.90;;;;;;5073842;28;20070;-85
2023/01/29 05:11:35;;;;;;;9.02;6.13;;;-4.20;99.90;;;;;;5073687;28;20021;-85
2023/01/29 05:14:05;;;;;;;12.65;7.60;;;-4.30;99.90;;;;;;5073670;28;20021;-84
2023/01/29 05:16:40;;;;;;;13.40;7.57;;;-4.30;99.90;;;;;;5074989;28;20097;-83
2023/01/29 05:19:12;;;;;;;11.73;7.55;;;-4.20;99.90;;;;;;5074664;28;20048;-85
2023/01/29 05:21:39;;;;;;;10.55;7.70;;;-4.30;99.90;;;;;;5073522;28;20021;-84
2023/01/29 05:24:14;;;;;;;14.15;7.82;;;-4.30;99.90;;;;;;5074687;28;20029;-84
2023/01/29 05:29:26;;;;;;;7.32;5.40;;;-4.30;99.90;;;;;;5074794;28;20059;-84
2023/01/29 05:31:51;;;;;;;10.73;6.00;;;-4.30;99.90;;;;;;5073541;28;20060;-83
2023/01/29 05:34:17;;;;;;;10.13;6.63;;;-4.30;99.90;;;;;;5074479;28;20497;-85
2023/01/29 05:36:43;;;;;;;10.63;7.25;;;-4.30;99.90;;;;;;5074772;28;20419;-84
2023/01/29 05:39:08;;;;;;;11.55;7.00;;;-4.30;99.90;;;;;;5074776;28;20073;-85
2023/01/29 05:41:34;;;;;;;10.23;6.32;;;-4.30;99.90;;;;;;5074462;28;20012;-85
2023/01/29 05:43:59;;;;;;;6.93;4.85;;;-4.20;99.90;;;;;;5073208;28;20082;-84
2023/01/29 05:46:25;;;;;;;8.90;5.90;;;-4.20;99.90;;;;;;5072858;28;20027;-84
2023/01/29 05:48:53;;;;;;;7.82;5.97;;;-4.10;99.90;;;;;;5074121;28;20025;-85
2023/01/29 05:51:19;;;;;;;10.77;6.43;;;-4.00;99.90;;;;;;5072887;28;20024;-85
2023/01/29 05:53:45;;;;;;;9.10;6.15;;;-4.10;99.90;;;;;;5074002;28;20065;-85
2023/01/29 05:56:10;;;;;;;9.65;5.82;;;-4.00;99.90;;;;;;5072744;28;20067;-85
2023/01/29 05:58:36;;;;;;;8.88;6.30;;;-4.00;99.90;;;;;;5072685;28;20035;-86
2023/01/29 06:01:15;;;;;;;10.32;6.20;;;-3.90;99.90;;;;;;5074107;28;20073;-85
2023/01/29 06:03:41;;;;;;;10.77;6.00;;;-3.90;99.90;;;;;;5072612;28;20031;-85
2023/01/29 06:06:07;;;;;;;8.15;5.55;;;-3.90;99.90;;;;;;5073846;28;20028;-85
2023/01/29 06:08:32;;;;;;;9.50;5.38;;;-3.90;99.90;;;;;;5072872;28;20112;-84
2023/01/29 06:10:58;;;;;;;6.22;4.82;;;-3.80;99.90;;;;;;5073848;28;20101;-84
2023/01/29 06:13:24;;;;;;;6.30;4.28;;;-3.80;99.90;;;;;;5072504;28;20017;-84
2023/01/29 06:15:49;;;;;;;7.35;5.10;;;-3.80;99.90;;;;;;5073786;28;20026;-85
2023/01/29 06:18:15;;;;;;;9.70;5.13;;;-3.80;99.90;;;;;;5072613;28;20027;-86
2023/01/29 06:20:40;;;;;;;6.68;4.88;;;-3.80;99.90;;;;;;5073714;28;20078;-84
2023/01/29 06:23:06;;;;;;;5.45;4.60;;;-3.80;99.90;;;;;;5072439;28;20024;-85
2023/01/29 06:25:31;;;;;;;5.40;4.30;;;-3.70;99.90;;;;;;5072554;28;20082;-85
2023/01/29 06:27:57;;;;;;;6.93;4.97;;;-3.70;99.90;;;;;;5073861;28;20096;-84
2023/01/29 06:30:22;;;;;;;6.18;4.40;;;-3.70;99.90;;;;;;5072038;28;20359;-83
2023/01/29 06:32:48;;;;;;;5.53;4.88;;;-3.80;99.90;;;;;;5072540;28;20086;-83
2023/01/29 06:35:14;;;;;;;7.47;4.75;;;-3.70;99.90;;;;;;5072109;28;20017;-86
2023/01/29 06:37:39;;;;;;;5.90;4.07;;;-3.70;99.90;;;;;;5072197;28;20390;-84
2023/01/29 06:40:05;;;;;;;5.35;4.85;;;-3.70;99.90;;;;;;5072162;28;20158;-85
2023/01/29 06:42:33;;;;;;;5.13;4.10;;;-3.70;99.90;;;;;;5072367;28;20028;-84
2023/01/29 06:44:59;;;;;;;6.70;4.95;;;-3.60;99.90;;;;;;5072028;28;20117;-85
2023/01/29 06:47:26;;;;;;;7.57;5.35;;;-3.70;99.90;;;;;;5072514;28;20107;-84
2023/01/29 06:49:52;;;;;;;9.32;6.07;;;-3.70;99.90;;;;;;5072064;28;20101;-85
2023/01/29 06:52:18;;;;;;;8.63;6.03;;;-3.70;99.90;;;;;;5072365;28;20017;-85
2023/01/29 06:54:43;;;;;;;10.27;5.93;;;-3.70;99.90;;;;;;5073391;28;20066;-84
2023/01/29 06:57:09;;;;;;;8.80;6.38;;;-3.70;99.90;;;;;;5073400;28;20025;-86
2023/01/29 06:59:34;;;;;;;11.32;6.75;;;-3.70;99.90;;;;;;5072026;28;20074;-84
2023/01/29 07:02:01;;;;;;;8.68;6.05;;;-3.70;99.90;;;;;;5073453;28;20036;-84
2023/01/29 07:04:27;;;;;;;12.05;6.18;;;-3.60;99.90;;;;;;5073002;28;20036;-86
2023/01/29 07:06:52;;;;;;;11.15;6.35;;;-3.60;99.90;;;;;;5072298;28;20027;-85
2023/01/29 07:09:18;;;;;;;12.18;6.55;;;-3.60;99.90;;;;;;5075624;28;20410;-85
2023/01/29 07:11:44;;;;;;;10.05;6.20;;;-3.60;99.90;;;;;;5077008;28;20025;-86
2023/01/29 07:14:09;;;;;;;9.38;6.45;;;-3.60;99.90;;;;;;5076805;28;20053;-85
2023/01/29 07:16:35;;;;;;;9.32;6.85;;;-3.60;99.90;;;;;;5076655;28;20033;-86
2023/01/29 07:19:01;;;;;;;10.65;6.60;;;-3.60;99.90;;;;;;5075721;28;20060;-86
2023/01/29 07:21:27;;;;;;;8.52;5.70;;;-3.50;99.90;;;;;;5076962;28;20059;-86
2023/01/29 07:23:52;;;;;;;8.70;6.30;;;-3.50;99.90;;;;;;5077180;28;20032;-85
2023/01/29 07:26:18;;;;;;;10.80;5.93;;;-3.50;99.90;;;;;;5075657;28;20027;-84
2023/01/29 07:28:43;;;;;;;10.95;6.60;;;-3.50;99.90;;;;;;5076795;28;20081;-84
2023/01/29 07:31:12;;;;;;;9.20;6.78;;;-3.50;99.90;;;;;;5076566;28;20032;-85
2023/01/29 07:33:38;;;;;;;11.07;7.07;;;-3.50;99.90;;;;;;5075473;28;20115;-84
2023/01/29 07:36:07;;;;;;;10.02;6.07;;;-3.40;99.90;;;;;;5075258;28;20109;-85
2023/01/29 07:38:33;;;;;;;10.43;6.72;;;-3.40;99.90;;;;;;5074712;28;20031;-82
2023/01/29 07:40:58;;;;;;;9.80;6.75;;;-3.40;99.90;;;;;;5076353;28;20028;-85
2023/01/29 07:43:24;;;;;;;10.10;6.68;;;-3.40;99.90;;;;;;5059921;28;20107;-83
2023/01/29 07:45:50;;;;;;;14.93;7.72;;;-3.40;99.90;;;;;;5054877;28;20482;-82
2023/01/29 07:48:16;;;;;;;11.23;7.25;;;-3.40;99.90;;;;;;5068334;28;20397;-84
2023/01/29 07:50:42;;;;;;;10.15;7.35;;;-3.40;99.90;;;;;;5074730;28;20028;-85
2023/01/29 07:53:14;;;;;;;13.25;8.88;;;-3.40;99.90;;;;;;5075100;28;20033;-84
2023/01/29 07:55:42;;;;;;;14.95;8.57;;;-3.30;99.90;;;;;;5074824;28;20024;-82
2023/01/29 07:58:08;;;;;;;20.75;9.32;;;-3.20;99.90;;;;;;5075908;28;20020;-84
2023/01/29 08:00:33;;;;;;;15.48;9.23;;;-3.00;99.90;;;;;;5075891;28;20020;-85
2023/01/29 08:03:09;;;;;;;16.23;9.88;;;-2.90;99.90;;;;;;5071114;28;20029;-82
2023/01/29 08:05:35;;;;;;;19.17;10.75;;;-2.70;99.90;;;;;;5055775;28;20033;-81
2023/01/29 08:08:00;;;;;;;16.67;10.20;;;-2.70;99.90;;;;;;5064525;28;20021;-82
2023/01/29 08:10:26;;;;;;;16.75;10.18;;;-2.80;99.90;;;;;;5074383;28;20024;-85
2023/01/29 08:12:56;;;;;;;18.20;10.52;;;-2.80;99.90;;;;;;5067760;28;20032;-82
2023/01/29 08:15:22;;;;;;;18.63;10.85;;;-2.90;99.90;;;;;;5074307;28;20059;-82
2023/01/29 08:17:48;;;;;;;17.80;10.65;;;-2.80;99.90;;;;;;5075085;28;20027;-82
2023/01/29 08:20:14;;;;;;;15.82;10.05;;;-2.80;99.90;;;;;;5082646;28;20056;-81
2023/01/29 08:22:39;;;;;;;17.67;10.27;;;-2.80;99.90;;;;;;5071693;28;20025;-82
2023/01/29 08:25:05;;;;;;;20.55;11.18;;;-2.90;99.90;;;;;;5057368;28;20059;-81
2023/01/29 08:27:31;;;;;;;26.45;12.02;;;-2.90;99.90;;;;;;5057243;28;20028;-81
2023/01/29 08:29:56;;;;;;;32.15;14.30;;;-2.80;99.90;;;;;;5071523;28;20037;-81
2023/01/29 08:32:22;;;;;;;314.85;98.40;;;-2.80;99.90;;;;;;5056803;28;20024;-81
2023/01/29 08:34:48;;;;;;;22.80;13.38;;;-2.80;99.90;;;;;;5074809;28;20060;-81
2023/01/29 08:37:13;;;;;;;300.10;103.45;;;-2.80;99.90;;;;;;5074827;28;20356;-81
2023/01/29 08:39:39;;;;;;;327.48;125.63;;;-2.80;99.90;;;;;;5056844;28;20047;-81
2023/01/29 08:42:04;;;;;;;559.70;219.02;;;-2.70;99.90;;;;;;5056899;28;20386;-81
2023/01/29 08:44:30;;;;;;;646.03;272.25;;;-2.70;99.90;;;;;;5056258;28;20527;-84
2023/01/29 08:46:56;;;;;;;198.77;82.80;;;-2.80;99.90;;;;;;5056660;28;20116;-84
2023/01/29 08:49:21;;;;;;;103.57;38.47;;;-2.70;99.90;;;;;;5056641;28;20029;-85
2023/01/29 08:51:47;;;;;;;544.95;218.57;;;-2.70;99.90;;;;;;5074621;28;20021;-85
2023/01/29 08:54:12;;;;;;;168.75;57.90;;;-2.70;99.90;;;;;;5091737;28;20032;-86
2023/01/29 08:56:38;;;;;;;241.98;72.72;;;-2.90;99.90;;;;;;5079325;28;20020;-83
2023/01/29 08:59:03;;;;;;;102.57;28.80;;;-2.90;99.90;;;;;;5085501;28;20036;-83
2023/01/29 09:01:29;;;;;;;138.63;42.65;;;-2.90;99.90;;;;;;5094112;28;20444;-83
2023/01/29 09:03:55;;;;;;;65.60;27.73;;;-2.90;99.90;;;;;;5094627;28;20416;-86
2023/01/29 09:06:20;;;;;;;30.98;15.93;;;-2.90;99.90;;;;;;5076731;28;20068;-85
2023/01/29 09:08:46;;;;;;;71.80;30.70;;;-2.90;99.90;;;;;;5094310;28;20111;-86
2023/01/29 09:11:12;;;;;;;48.45;20.25;;;-2.80;99.90;;;;;;5076644;28;20024;-85
2023/01/29 09:13:37;;;;;;;119.32;45.80;;;-2.70;99.90;;;;;;5094390;28;20039;-86
2023/01/29 09:16:04;;;;;;;147.43;56.60;;;-2.70;99.90;;;;;;5094652;28;20028;-82
2023/01/29 09:18:30;;;;;;;98.32;39.00;;;-2.70;99.90;;;;;;5093770;28;20083;-83
2023/01/29 09:20:56;;;;;;;52.13;27.58;;;-2.80;94.50;;;;;;5094592;28;20070;-86
2023/01/29 09:23:22;;;;;;;102.68;36.88;;;-2.80;94.00;;;;;;5094337;28;20099;-83
2023/01/29 09:25:48;;;;;;;125.03;40.28;;;-2.80;92.50;;;;;;5094465;28;20111;-82
2023/01/29 09:28:16;;;;;;;56.28;21.48;;;-2.80;93.10;;;;;;5076087;28;20063;-85
2023/01/29 09:30:42;;;;;;;36.45;16.95;;;-2.80;95.40;;;;;;5075939;28;20078;-83
2023/01/29 09:33:08;;;;;;;42.05;18.30;;;-2.70;99.60;;;;;;5094220;28;20474;-83
2023/01/29 09:35:34;;;;;;;80.38;30.88;;;-2.60;99.90;;;;;;5076544;28;20053;-83
2023/01/29 09:37:59;;;;;;;41.08;16.88;;;-2.60;99.90;;;;;;5093964;28;20031;-83
2023/01/29 09:40:34;;;;;;;58.38;23.95;;;-2.60;99.90;;;;;;5076139;28;20386;-83
2023/01/29 09:43:26;;;;;;;92.60;36.45;;;-2.60;99.90;;;;;;5075991;28;20032;-83
2023/01/29 09:46:00;;;;;;;45.95;21.30;;;-2.50;99.90;;;;;;5094217;28;20052;-86
2023/01/29 09:48:29;;;;;;;38.78;16.88;;;-2.50;99.90;;;;;;5075585;28;20020;-85
2023/01/29 09:50:57;;;;;;;30.08;14.50;;;-2.50;98.30;;;;;;5094037;28;20024;-86
2023/01/29 09:53:44;;;;;;;29.13;13.40;;;-2.40;97.20;;;;;;5063247;28;20024;-83
2023/01/29 09:56:18;;;;;;;29.92;14.35;;;-2.30;95.90;;;;;;5074982;28;20028;-83
2023/01/29 09:58:43;;;;;;;28.60;14.38;;;-2.10;96.50;;;;;;5082717;28;20028;-83
2023/01/29 10:01:26;;;;;;;23.15;14.27;;;-2.00;92.40;;;;;;5069595;28;20029;-83
2023/01/29 10:04:18;;;;;;;53.95;27.52;;;-2.00;90.90;;;;;;5055864;28;20032;-83
2023/01/29 10:06:58;;;;;;;31.10;18.27;;;-2.00;91.40;;;;;;5055465;28;20028;-86
2023/01/29 10:09:51;;;;;;;14.95;9.02;;;-2.10;90.40;;;;;;5073484;28;20025;-86
2023/01/29 10:12:35;;;;;;;45.97;20.20;;;-2.20;90.50;;;;;;5055420;28;20016;-86
2023/01/29 10:15:39;;;;;;;31.65;15.52;;;-2.20;90.00;;;;;;5073367;28;20048;-86
2023/01/29 10:18:19;;;;;;;30.42;13.27;;;-2.20;90.00;;;;;;5073341;28;20032;-83
2023/01/29 10:21:39;;;;;;;41.83;18.38;;;-2.20;89.90;;;;;;5093402;28;20044;-83
2023/01/29 10:24:11;;;;;;;33.42;13.32;;;-2.20;88.60;;;;;;4994992;28;20542;-86
2023/01/29 10:26:39;;;;;;;40.13;16.40;;;-2.10;88.90;;;;;;5079666;28;20035;-86
2023/01/29 10:29:06;;;;;;;13.70;9.32;;;-2.10;87.40;;;;;;5093107;28;20089;-86
2023/01/29 10:31:37;;;;;;;86.53;29.83;;;-2.20;85.40;;;;;;5076621;28;20040;-85
2023/01/29 10:34:41;;;;;;;13.15;7.90;;;-2.10;86.60;;;;;;5055361;28;20055;-85
2023/01/29 10:37:40;;;;;;;13.55;9.10;;;-2.20;88.40;;;;;;5055521;28;20024;-86
2023/01/29 10:40:17;;;;;;;15.05;8.63;;;-2.20;89.20;;;;;;5072579;28;20017;-86
2023/01/29 10:42:50;;;;;;;17.23;9.20;;;-2.20;91.40;;;;;;5054643;28;20020;-85
2023/01/29 10:45:25;;;;;;;12.93;8.10;;;-2.30;91.40;;;;;;5055195;28;20105;-86
2023/01/29 10:48:03;;;;;;;19.33;10.80;;;-2.30;90.80;;;;;;5072919;28;20030;-83
2023/01/29 10:50:40;;;;;;;19.23;9.88;;;-2.30;91.30;;;;;;5073198;28;20024;-83
2023/01/29 10:53:15;;;;;;;47.55;19.35;;;-2.20;92.50;;;;;;5072893;28;20481;-83
2023/01/29 10:56:08;;;;;;;23.58;12.20;;;-2.10;92.70;;;;;;5055115;28;20028;-83
2023/01/29 10:58:54;;;;;;;41.00;17.13;;;-2.00;93.00;;;;;;5072789;28;20028;-86
2023/01/29 11:01:20;;;;;;;21.63;10.05;;;-2.00;91.80;;;;;;5072878;28;20055;-84
2023/01/29 11:03:59;;;;;;;34.63;15.35;;;-2.00;89.50;;;;;;5073185;28;20060;-83
2023/01/29 11:06:30;;;;;;;44.47;25.05;;;-2.10;88.60;;;;;;5073044;28;20039;-84
2023/01/29 11:09:31;;;;;;;18.10;11.23;;;-2.00;86.80;;;;;;5072707;28;20033;-86
2023/01/29 11:12:01;;;;;;;12.63;8.80;;;-2.00;85.00;;;;;;5014351;28;20021;-83
2023/01/29 11:14:43;;;;;;;31.60;14.50;;;-2.00;84.00;;;;;;5047663;28;20100;-87
2023/01/29 11:17:16;;;;;;;11.18;7.40;;;-2.00;81.90;;;;;;5072793;28;20040;-83
2023/01/29 11:19:44;;;;;;;7.22;6.13;;;-2.10;80.40;;;;;;5054817;28;20457;-83
2023/01/29 11:22:21;;;;;;;15.00;8.45;;;-2.20;79.10;;;;;;5054527;28;20013;-83
2023/01/29 11:25:14;;;;;;;12.52;8.25;;;-2.00;79.30;;;;;;5072310;28;20535;-83
2023/01/29 11:27:44;;;;;;;12.38;8.25;;;-1.90;79.00;;;;;;5072422;28;20021;-83
2023/01/29 11:30:23;;;;;;;15.23;8.52;;;-2.00;77.50;;;;;;5054826;28;20025;-84
2023/01/29 11:33:10;;;;;;;14.18;9.48;;;-2.00;78.20;;;;;;5072443;28;20029;-83
2023/01/29 11:35:36;;;;;;;23.35;12.32;;;-1.90;79.60;;;;;;5044357;28;20124;-87
2023/01/29 11:38:19;;;;;;;33.95;15.80;;;-1.90;79.30;;;;;;5054467;28;20040;-86
2023/01/29 11:40:44;;;;;;;;;;;-1.80;80.50;;;;;;5055184;28;20470;-86
2023/01/29 11:43:12;;;;;;;41.60;18.85;;;-1.80;81.00;;;;;;5054870;28;19995;-87
2023/01/29 11:45:39;;;;;;;48.35;21.98;;;-1.90;81.20;;;;;;5054575;28;20058;-84
2023/01/29 11:48:12;;;;;;;57.17;23.20;;;-1.90;81.40;;;;;;5072227;28;20017;-84
2023/01/29 11:50:37;;;;;;;29.80;15.88;;;-2.00;82.20;;;;;;5054681;28;20082;-87
2023/01/29 11:53:05;;;;;;;24.13;13.00;;;-1.90;83.20;;;;;;5055273;28;20418;-87
2023/01/29 11:55:34;;;;;;;25.73;12.27;;;-1.90;82.80;;;;;;5057989;28;20439;-84
2023/01/29 11:58:19;;;;;;;19.80;11.73;;;-2.00;82.10;;;;;;5057977;28;20608;-84
2023/01/29 12:00:49;;;;;;;20.42;9.68;;;-2.00;82.30;;;;;;5055667;28;20029;-84
2023/01/29 12:03:28;;;;;;;16.02;10.18;;;-2.00;81.70;;;;;;5037861;28;20063;-82
2023/01/29 12:06:00;;;;;;;21.40;11.07;;;-1.90;82.00;;;;;;5055806;28;20051;-87
2023/01/29 12:08:32;;;;;;;36.07;16.20;;;-1.80;80.90;;;;;;5055582;28;20079;-87
2023/01/29 12:11:13;;;;;;;36.22;16.58;;;-1.80;81.00;;;;;;5037844;28;20830;-84
2023/01/29 12:13:42;;;;;;;31.00;15.00;;;-1.70;79.60;;;;;;5037594;28;20012;-87
2023/01/29 12:16:32;;;;;;;23.20;12.32;;;-1.60;79.50;;;;;;5035930;28;20542;-87
2023/01/29 12:19:23;;;;;;;27.52;12.95;;;-1.60;78.70;;;;;;5042568;28;20044;-86
2023/01/29 12:21:56;;;;;;;25.23;13.55;;;-1.50;79.10;;;;;;5073463;28;20056;-84
2023/01/29 12:24:47;;;;;;;31.13;14.07;;;-1.50;79.30;;;;;;5073378;28;20024;-84
2023/01/29 12:27:46;;;;;;;35.05;14.27;;;-1.50;78.60;;;;;;5055360;28;20510;-84
2023/01/29 12:30:12;;;;;;;25.55;13.82;;;-1.50;78.70;;;;;;5048162;28;20032;-87
2023/01/29 12:32:49;;;;;;;99.65;40.05;;;-1.50;78.40;;;;;;5055275;28;20028;-87
2023/01/29 12:35:32;;;;;;;22.17;11.63;;;-1.40;79.20;;;;;;5068843;28;20024;-82
2023/01/29 12:37:57;;;;;;;;;;;-1.40;78.70;;;;;;5077937;28;20466;-85
2023/01/29 12:40:31;;;;;;;15.30;10.73;;;-1.40;78.70;;;;;;5095462;28;19912;-84
2023/01/29 12:43:01;;;;;;;15.55;10.88;;;-1.50;79.20;;;;;;5077280;28;20019;-85
2023/01/29 12:45:29;;;;;;;57.40;24.30;;;-1.50;78.20;;;;;;5077517;28;20036;-82
2023/01/29 12:48:00;;;;;;;23.13;13.05;;;-1.60;77.60;;;;;;5095776;28;20016;-84
2023/01/29 12:50:32;;;;;;;58.53;24.30;;;-1.60;77.40;;;;;;5077693;28;20500;-82
2023/01/29 12:53:02;;;;;;;23.23;12.70;;;-1.60;77.40;;;;;;5095597;28;20389;-82
2023/01/29 12:55:32;;;;;;;26.27;12.38;;;-1.60;77.20;;;;;;5095575;28;20024;-85
2023/01/29 12:58:11;;;;;;;31.02;12.80;;;-1.60;77.20;;;;;;5077744;28;20024;-84
2023/01/29 13:00:43;;;;;;;24.65;11.00;;;-1.60;76.60;;;;;;5096013;28;20020;-86
2023/01/29 13:03:29;;;;;;;21.48;13.93;;;-1.70;76.40;;;;;;5095592;28;20020;-87
2023/01/29 13:05:58;;;;;;;39.92;15.55;;;-1.70;76.90;;;;;;5075670;28;20562;-86
2023/01/29 13:08:37;;;;;;;18.70;9.82;;;-1.70;77.30;;;;;;5091240;28;20021;-84
2023/01/29 13:11:15;;;;;;;18.40;10.85;;;-1.60;77.70;;;;;;5076160;28;20036;-83
2023/01/29 13:13:51;;;;;;;26.63;13.60;;;-1.60;77.00;;;;;;5095212;28;20047;-82
2023/01/29 13:16:23;;;;;;;25.08;12.80;;;-1.60;77.50;;;;;;5096039;28;20032;-82
2023/01/29 13:18:56;;;;;;;23.63;12.63;;;-1.60;78.70;;;;;;5094417;28;20052;-84
2023/01/29 13:21:39;;;;;;;24.23;12.52;;;-1.60;78.10;;;;;;5094212;28;20037;-82
2023/01/29 13:24:15;;;;;;;28.85;14.13;;;-1.70;77.80;;;;;;5093476;28;20887;-86